Time;durP1;ratioP1;P1;durP2;ratioP2;P2;SDS_P1;SDS_P2;PMS_P1;PMS_P2;Temp;Humidity;BMP_temperature;BMP_pressure;BME280_temperature;BME280_humidity;BME280_pressure;Samples;Min_cycle;Max_cycle;Signal;HPM_P1;HPM_P2
2023/02/12 00:01:57;;;;;;;49.73;28.60;;;8.80;99.90;;;;;;5107658;28;20473;-87
2023/02/12 00:04:29;;;;;;;42.50;25.73;;;8.80;99.90;;;;;;5121421;28;20522;-86
2023/02/12 00:06:58;;;;;;;46.30;26.00;;;8.80;99.90;;;;;;5110486;28;20461;-86
2023/02/12 00:09:28;;;;;;;46.70;25.47;;;8.80;99.90;;;;;;5111755;28;20479;-86
2023/02/12 00:11:55;;;;;;;42.73;25.13;;;8.80;99.90;;;;;;5119712;28;20450;-85
2023/02/12 00:14:23;;;;;;;49.97;26.17;;;8.80;99.90;;;;;;5113169;28;20477;-85
2023/02/12 00:16:50;;;;;;;40.90;24.50;;;8.80;99.90;;;;;;5113459;28;20526;-86
2023/02/12 00:19:19;;;;;;;46.13;26.37;;;8.80;99.90;;;;;;5120562;28;20490;-86
2023/02/12 00:21:46;;;;;;;44.27;24.97;;;8.80;99.90;;;;;;5113410;28;20544;-86
2023/02/12 00:24:13;;;;;;;38.00;22.60;;;8.80;99.90;;;;;;5121146;28;20476;-85
2023/02/12 00:26:41;;;;;;;45.33;25.40;;;8.80;99.90;;;;;;5125508;28;20504;-86
2023/02/12 00:29:09;;;;;;;43.13;23.60;;;8.70;99.90;;;;;;5129629;28;20465;-83
2023/02/12 00:31:36;;;;;;;44.70;26.70;;;8.80;99.90;;;;;;5115289;28;20517;-87
2023/02/12 00:34:02;;;;;;;49.13;28.07;;;8.70;99.90;;;;;;5111510;28;20569;-86
2023/02/12 00:36:33;;;;;;;44.30;24.63;;;8.70;99.90;;;;;;5119173;28;20537;-86
2023/02/12 00:39:00;;;;;;;40.20;23.80;;;8.70;99.90;;;;;;5123114;28;20473;-86
2023/02/12 00:41:28;;;;;;;39.73;22.67;;;8.70;99.90;;;;;;5108104;28;20470;-85
2023/02/12 00:43:56;;;;;;;44.33;24.63;;;8.70;99.90;;;;;;5118005;28;20521;-85
2023/02/12 00:46:23;;;;;;;41.00;23.50;;;8.70;99.90;;;;;;5118358;28;20502;-86
2023/02/12 00:48:50;;;;;;;40.87;23.10;;;8.70;99.90;;;;;;5125649;28;20467;-85
2023/02/12 00:51:17;;;;;;;45.17;25.40;;;8.70;99.90;;;;;;5111680;28;20497;-86
2023/02/12 00:53:44;;;;;;;43.80;23.87;;;8.70;99.90;;;;;;5124517;28;20468;-85
2023/02/12 00:56:11;;;;;;;43.90;25.83;;;8.70;99.90;;;;;;5118661;28;20513;-87
2023/02/12 00:58:38;;;;;;;40.60;22.10;;;8.70;99.90;;;;;;5113253;28;20458;-87
2023/02/12 01:01:07;;;;;;;50.13;25.50;;;8.70;99.90;;;;;;5107516;28;20450;-86
2023/02/12 01:03:33;;;;;;;41.07;23.27;;;8.70;99.90;;;;;;5123461;28;20528;-87
2023/02/12 01:06:00;;;;;;;47.93;26.77;;;8.70;99.90;;;;;;5116292;28;20531;-87
2023/02/12 01:08:29;;;;;;;47.37;26.27;;;8.70;99.90;;;;;;5123606;28;20488;-88
2023/02/12 01:10:58;;;;;;;44.37;23.53;;;8.70;99.90;;;;;;5121507;28;20485;-87
2023/02/12 01:13:25;;;;;;;42.30;23.63;;;8.70;99.90;;;;;;5120571;28;20486;-86
2023/02/12 01:16:02;;;;;;;41.13;22.97;;;8.60;99.90;;;;;;5114029;28;20548;-86
2023/02/12 01:18:35;;;;;;;39.33;24.23;;;8.70;99.90;;;;;;5112273;28;20507;-86
2023/02/12 01:21:02;;;;;;;43.03;22.43;;;8.70;99.90;;;;;;5102135;28;20532;-87
2023/02/12 01:23:29;;;;;;;40.70;26.30;;;8.70;99.90;;;;;;5118992;28;20517;-84
2023/02/12 01:25:58;;;;;;;49.47;28.20;;;8.60;99.90;;;;;;5106937;28;20497;-84
2023/02/12 01:28:25;;;;;;;48.70;27.73;;;8.60;99.90;;;;;;5114760;28;20440;-82
2023/02/12 01:30:51;;;;;;;50.17;26.43;;;8.60;99.90;;;;;;5118421;28;20510;-86
2023/02/12 01:33:19;;;;;;;43.70;25.07;;;8.70;99.90;;;;;;5120284;28;20473;-85
2023/02/12 01:35:48;;;;;;;40.50;25.70;;;8.70;99.90;;;;;;5126275;28;20496;-85
2023/02/12 01:38:15;;;;;;;47.43;24.87;;;8.60;99.90;;;;;;5122357;28;20443;-87
2023/02/12 01:40:42;;;;;;;47.23;26.67;;;8.60;99.90;;;;;;5114327;28;20469;-86
2023/02/12 01:43:12;;;;;;;41.67;25.17;;;8.70;99.90;;;;;;5117722;28;20478;-86
2023/02/12 01:45:52;;;;;;;44.23;25.97;;;8.60;99.90;;;;;;5123983;28;20476;-86
2023/02/12 01:48:22;;;;;;;48.10;24.77;;;8.60;99.90;;;;;;5129552;28;20513;-86
2023/02/12 01:50:52;;;;;;;38.13;25.30;;;8.60;99.90;;;;;;5128258;28;20475;-87
2023/02/12 01:53:21;;;;;;;45.03;27.07;;;8.60;99.90;;;;;;5114997;28;20450;-87
2023/02/12 01:55:52;;;;;;;50.17;27.50;;;8.60;99.90;;;;;;5123863;28;21063;-87
2023/02/12 01:58:20;;;;;;;56.50;30.00;;;8.60;99.90;;;;;;5129946;28;20477;-86
2023/02/12 02:00:47;;;;;;;45.30;24.97;;;8.60;99.90;;;;;;5127940;28;20449;-85
2023/02/12 02:03:14;;;;;;;45.47;26.73;;;8.60;99.90;;;;;;5129445;28;20493;-86
2023/02/12 02:05:47;;;;;;;46.30;23.63;;;8.60;99.90;;;;;;5128093;28;20473;-86
2023/02/12 02:08:15;;;;;;;52.30;28.20;;;8.60;99.90;;;;;;5128120;28;20456;-86
2023/02/12 02:10:42;;;;;;;44.80;27.90;;;8.50;99.90;;;;;;5122915;28;20457;-85
2023/02/12 02:15:59;;;;;;;45.80;28.63;;;8.60;99.90;;;;;;5126895;28;21074;-85
2023/02/12 02:18:34;;;;;;;47.87;26.33;;;8.60;99.90;;;;;;5123443;28;20542;-85
2023/02/12 02:21:27;;;;;;;43.40;27.43;;;8.60;99.90;;;;;;5129385;28;20497;-85
2023/02/12 02:24:29;;;;;;;41.37;24.30;;;8.60;99.90;;;;;;5125062;28;20493;-85
2023/02/12 02:27:34;;;;;;;48.40;25.33;;;8.60;99.90;;;;;;5118612;28;20480;-85
2023/02/12 02:30:26;;;;;;;45.03;24.47;;;8.60;99.90;;;;;;5120874;28;20449;-85
2023/02/12 02:33:08;;;;;;;37.80;22.37;;;8.50;99.90;;;;;;5112499;28;22024;-87
2023/02/12 02:35:45;;;;;;;37.30;22.90;;;8.50;99.90;;;;;;5132549;28;20837;-86
2023/02/12 02:38:24;;;;;;;41.70;24.20;;;8.50;99.90;;;;;;5121178;28;20546;-87
2023/02/12 02:40:58;;;;;;;44.77;26.20;;;8.50;99.90;;;;;;5132180;28;20453;-85
2023/02/12 02:43:33;;;;;;;45.40;22.77;;;8.60;99.90;;;;;;5130779;28;20520;-87
2023/02/12 02:46:05;;;;;;;39.63;22.63;;;8.50;99.90;;;;;;5118777;28;20513;-86
2023/02/12 02:48:39;;;;;;;35.40;22.00;;;8.50;99.90;;;;;;5119844;28;20608;-86
2023/02/12 02:51:11;;;;;;;37.67;21.17;;;8.50;99.90;;;;;;5116401;28;20454;-86
2023/02/12 02:53:44;;;;;;;41.73;25.10;;;8.50;99.90;;;;;;5116829;28;20463;-85
2023/02/12 02:56:17;;;;;;;38.97;22.47;;;8.50;99.90;;;;;;5128582;28;20474;-86
2023/02/12 02:58:51;;;;;;;39.93;22.57;;;8.50;99.90;;;;;;5126955;28;20516;-85
2023/02/12 03:01:22;;;;;;;38.63;23.13;;;8.50;99.90;;;;;;5112638;28;20453;-85
2023/02/12 03:03:58;;;;;;;43.33;25.33;;;8.50;99.90;;;;;;5114085;28;20482;-86
2023/02/12 03:06:30;;;;;;;41.23;24.10;;;8.50;99.90;;;;;;5115748;28;20500;-86
2023/02/12 03:09:05;;;;;;;36.73;21.10;;;8.50;99.90;;;;;;5125001;28;20493;-85
2023/02/12 03:11:34;;;;;;;38.13;20.50;;;8.50;99.90;;;;;;5126757;28;20456;-86
2023/02/12 03:14:09;;;;;;;38.90;23.43;;;8.50;99.90;;;;;;5120841;28;20542;-88
2023/02/12 03:16:44;;;;;;;38.40;22.33;;;8.50;99.90;;;;;;5111107;28;20434;-86
2023/02/12 03:19:17;;;;;;;35.80;22.40;;;8.50;99.90;;;;;;5121067;28;20518;-87
2023/02/12 03:21:49;;;;;;;37.00;23.60;;;8.50;99.90;;;;;;5123605;28;20996;-85
2023/02/12 03:24:21;;;;;;;39.87;23.83;;;8.50;99.90;;;;;;5120395;28;20930;-86
2023/02/12 03:26:53;;;;;;;34.60;20.10;;;8.50;99.90;;;;;;5123302;28;20487;-87
2023/02/12 03:29:20;;;;;;;40.33;22.30;;;8.50;99.90;;;;;;5115733;28;20529;-87
2023/02/12 03:31:58;;;;;;;35.63;22.03;;;8.50;99.90;;;;;;5121303;28;20536;-86
2023/02/12 03:34:33;;;;;;;34.80;20.00;;;8.50;99.90;;;;;;5126003;28;20495;-87
2023/02/12 03:37:05;;;;;;;50.20;25.17;;;8.50;99.90;;;;;;5125042;28;20491;-87
2023/02/12 03:39:39;;;;;;;40.40;21.80;;;8.50;99.90;;;;;;5117198;28;20496;-86
2023/02/12 03:42:10;;;;;;;36.87;21.17;;;8.40;99.90;;;;;;5121520;28;20536;-83
2023/02/12 03:44:48;;;;;;;42.10;22.23;;;8.40;99.90;;;;;;5123454;28;20513;-85
2023/02/12 03:47:22;;;;;;;34.63;20.30;;;8.40;99.90;;;;;;5123727;28;20446;-85
2023/02/12 03:49:58;;;;;;;39.33;22.57;;;8.40;99.90;;;;;;5120838;28;20536;-85
2023/02/12 03:52:25;;;;;;;39.63;24.00;;;8.40;99.90;;;;;;5120725;28;20453;-87
2023/02/12 03:54:52;;;;;;;40.00;22.33;;;8.40;99.90;;;;;;5124935;28;20460;-84
2023/02/12 03:57:22;;;;;;;37.57;21.70;;;8.40;99.90;;;;;;5116238;28;20809;-84
2023/02/12 03:59:50;;;;;;;36.73;21.57;;;8.40;99.90;;;;;;5112517;28;20478;-87
2023/02/12 04:02:19;;;;;;;39.50;21.70;;;8.40;99.90;;;;;;5126841;28;20475;-86
2023/02/12 04:04:47;;;;;;;40.03;22.23;;;8.40;99.90;;;;;;5124379;28;20496;-85
2023/02/12 04:07:16;;;;;;;36.40;22.67;;;8.40;99.90;;;;;;5124183;28;20526;-86
2023/02/12 04:09:43;;;;;;;35.17;21.57;;;8.40;99.90;;;;;;5123654;28;20457;-86
2023/02/12 04:12:34;;;;;;;35.43;20.80;;;8.40;99.90;;;;;;5124398;28;20444;-86
2023/02/12 04:15:28;;;;;;;36.87;22.70;;;8.40;99.90;;;;;;5122447;28;20496;-85
2023/02/12 04:18:04;;;;;;;39.60;21.47;;;8.40;99.90;;;;;;5114757;28;20497;-86
2023/02/12 04:20:41;;;;;;;39.63;22.40;;;8.30;99.90;;;;;;5108399;28;20450;-86
2023/02/12 04:23:16;;;;;;;38.77;21.87;;;8.30;99.90;;;;;;5120872;28;20943;-86
2023/02/12 04:25:55;;;;;;;34.07;21.83;;;8.40;99.90;;;;;;5112908;28;20549;-87
2023/02/12 04:28:28;;;;;;;39.57;22.80;;;8.40;99.90;;;;;;5121224;28;20520;-86
2023/02/12 04:30:59;;;;;;;37.47;21.80;;;8.40;99.90;;;;;;5112868;28;20468;-86
2023/02/12 04:33:34;;;;;;;39.07;22.30;;;8.30;99.90;;;;;;5116772;28;20590;-86
2023/02/12 04:36:06;;;;;;;32.03;20.13;;;8.40;99.90;;;;;;5102276;28;20539;-86
2023/02/12 04:38:37;;;;;;;34.43;21.20;;;8.40;99.90;;;;;;5109190;28;20451;-88
2023/02/12 04:41:06;;;;;;;38.83;21.60;;;8.40;99.90;;;;;;5125836;28;20453;-86
2023/02/12 04:43:35;;;;;;;41.57;23.73;;;8.40;99.90;;;;;;5135619;28;20461;-86
2023/02/12 04:46:03;;;;;;;36.77;19.93;;;8.40;99.90;;;;;;5125092;28;20451;-82
2023/02/12 04:48:33;;;;;;;39.57;21.20;;;8.40;99.90;;;;;;5119327;28;20520;-83
2023/02/12 04:51:00;;;;;;;35.77;20.67;;;8.40;99.90;;;;;;5134145;28;20475;-85
2023/02/12 04:53:27;;;;;;;32.50;21.33;;;8.30;99.90;;;;;;5126676;28;20505;-83
2023/02/12 04:55:54;;;;;;;40.53;22.83;;;8.30;99.90;;;;;;5125067;28;20552;-85
2023/02/12 04:58:21;;;;;;;38.27;22.63;;;8.40;99.90;;;;;;5130878;28;20964;-85
2023/02/12 05:00:47;;;;;;;41.20;23.50;;;8.40;99.90;;;;;;5134532;28;20473;-86
2023/02/12 05:03:14;;;;;;;38.70;21.57;;;8.40;99.90;;;;;;5126319;28;20494;-86
2023/02/12 05:05:43;;;;;;;35.33;21.87;;;8.40;99.90;;;;;;5110310;28;20477;-88
2023/02/12 05:08:09;;;;;;;35.80;21.93;;;8.30;99.90;;;;;;5139680;28;20510;-87
2023/02/12 05:10:36;;;;;;;38.50;23.17;;;8.40;99.90;;;;;;5138143;28;20481;-82
2023/02/12 05:13:03;;;;;;;42.37;23.40;;;8.40;99.90;;;;;;5139012;28;20452;-80
2023/02/12 05:15:30;;;;;;;40.20;23.53;;;8.40;99.90;;;;;;5137822;28;20534;-80
2023/02/12 05:17:56;;;;;;;39.07;23.87;;;8.40;99.90;;;;;;5137577;28;20449;-82
2023/02/12 05:20:23;;;;;;;41.00;24.40;;;8.40;99.90;;;;;;5126771;28;20465;-82
2023/02/12 05:22:56;;;;;;;38.40;23.40;;;8.40;99.90;;;;;;5126363;28;20561;-82
2023/02/12 05:25:22;;;;;;;40.13;25.00;;;8.40;99.90;;;;;;5109725;28;20489;-82
2023/02/12 05:27:49;;;;;;;47.17;27.60;;;8.40;99.90;;;;;;5104767;28;20553;-82
2023/02/12 05:30:16;;;;;;;37.37;22.43;;;8.40;99.90;;;;;;5124677;28;20540;-83
2023/02/12 05:32:43;;;;;;;37.53;22.93;;;8.40;99.90;;;;;;5125278;28;20454;-82
2023/02/12 05:35:10;;;;;;;42.23;23.80;;;8.40;99.90;;;;;;5110812;23;20573;-84
2023/02/12 05:37:37;;;;;;;35.83;22.20;;;8.40;99.90;;;;;;5037429;28;20481;-84
2023/02/12 05:40:08;;;;;;;48.77;27.73;;;8.40;99.90;;;;;;5039160;28;20446;-84
2023/02/12 05:42:34;;;;;;;43.17;24.37;;;8.40;99.90;;;;;;5039491;28;20462;-85
2023/02/12 05:45:01;;;;;;;36.97;24.97;;;8.40;99.90;;;;;;5031712;28;20489;-84
2023/02/12 05:47:28;;;;;;;41.60;22.60;;;8.40;99.90;;;;;;5074291;27;20456;-84
2023/02/12 05:49:55;;;;;;;42.67;23.97;;;8.40;99.90;;;;;;5072696;28;20453;-82
2023/02/12 05:52:22;;;;;;;46.47;24.30;;;8.40;99.90;;;;;;5037342;28;20463;-85
2023/02/12 05:54:50;;;;;;;47.00;25.07;;;8.40;99.90;;;;;;5028476;28;20481;-84
2023/02/12 05:57:18;;;;;;;41.23;26.43;;;8.40;99.90;;;;;;5036469;28;20501;-85
2023/02/12 05:59:45;;;;;;;39.37;22.83;;;8.40;99.90;;;;;;5035268;28;20539;-84
2023/02/12 06:02:11;;;;;;;46.17;26.87;;;8.40;99.90;;;;;;5036474;28;20598;-83
2023/02/12 06:04:38;;;;;;;46.70;24.30;;;8.40;99.90;;;;;;5036822;28;20489;-84
2023/02/12 06:07:06;;;;;;;43.30;24.40;;;8.40;99.90;;;;;;5037129;28;20476;-84
2023/02/12 06:09:33;;;;;;;52.40;27.10;;;8.40;99.90;;;;;;5049481;28;20471;-84
2023/02/12 06:12:00;;;;;;;42.63;26.87;;;8.40;99.90;;;;;;5035393;28;20455;-83
2023/02/12 06:14:29;;;;;;;39.93;23.90;;;8.40;99.90;;;;;;5040320;28;20516;-83
2023/02/12 06:16:55;;;;;;;38.07;23.00;;;8.40;99.90;;;;;;5038278;28;20449;-84
2023/02/12 06:19:23;;;;;;;48.23;26.13;;;8.40;99.90;;;;;;5038820;28;20543;-83
2023/02/12 06:21:50;;;;;;;40.93;23.23;;;8.40;99.90;;;;;;5038081;28;20569;-83
2023/02/12 06:24:17;;;;;;;48.53;26.93;;;8.40;99.90;;;;;;5074871;27;20490;-81
2023/02/12 06:26:44;;;;;;;42.13;23.33;;;8.40;99.90;;;;;;5130570;27;20438;-83
2023/02/12 06:29:12;;;;;;;48.20;23.50;;;8.40;99.90;;;;;;5096999;27;20508;-82
2023/02/12 06:31:40;;;;;;;37.87;22.67;;;8.40;99.90;;;;;;5056901;28;20845;-83
2023/02/12 06:34:10;;;;;;;36.90;22.40;;;8.40;99.90;;;;;;5057941;28;20458;-81
2023/02/12 06:36:37;;;;;;;40.87;23.10;;;8.40;99.90;;;;;;5044519;28;21011;-83
2023/02/12 06:39:05;;;;;;;40.50;22.33;;;8.40;99.90;;;;;;5037334;28;20844;-82
2023/02/12 06:41:31;;;;;;;40.13;24.20;;;8.40;99.90;;;;;;5040870;27;20458;-82
2023/02/12 06:43:58;;;;;;;37.80;23.30;;;8.30;99.90;;;;;;5035018;28;20495;-82
2023/02/12 06:46:26;;;;;;;45.80;25.53;;;8.30;99.90;;;;;;5032603;28;20593;-83
2023/02/12 06:48:55;;;;;;;45.83;25.37;;;8.30;99.90;;;;;;5030823;28;20466;-83
2023/02/12 06:51:22;;;;;;;43.20;25.40;;;8.20;99.90;;;;;;5031384;28;20453;-83
2023/02/12 06:53:50;;;;;;;42.80;23.93;;;8.20;99.90;;;;;;5034114;28;20467;-83
2023/02/12 06:56:18;;;;;;;41.10;23.50;;;8.20;99.90;;;;;;5036842;28;20526;-83
2023/02/12 06:58:47;;;;;;;42.40;23.47;;;8.20;99.90;;;;;;5032735;28;20528;-83
2023/02/12 07:01:16;;;;;;;37.67;22.90;;;8.20;99.90;;;;;;5035054;28;20451;-83
2023/02/12 07:03:47;;;;;;;46.07;26.70;;;8.20;99.90;;;;;;5027236;28;20507;-82
2023/02/12 07:06:15;;;;;;;43.83;26.27;;;8.20;99.90;;;;;;5042268;28;21024;-84
2023/02/12 07:08:42;;;;;;;46.33;26.60;;;8.30;99.90;;;;;;5044728;28;20454;-85
2023/02/12 07:11:10;;;;;;;41.17;24.37;;;8.30;99.90;;;;;;5039022;28;20480;-83
2023/02/12 07:13:37;;;;;;;44.07;24.07;;;8.30;99.90;;;;;;5042061;28;20457;-83
2023/02/12 07:16:06;;;;;;;43.43;25.53;;;8.30;99.90;;;;;;5043564;28;20480;-84
2023/02/12 07:18:34;;;;;;;40.83;22.57;;;8.30;99.90;;;;;;5042710;28;20449;-84
2023/02/12 07:21:01;;;;;;;47.03;25.00;;;8.40;99.90;;;;;;5041321;28;20445;-83
2023/02/12 07:23:29;;;;;;;42.37;25.20;;;8.40;99.90;;;;;;5042233;28;20473;-84
2023/02/12 07:25:56;;;;;;;45.73;24.87;;;8.40;99.90;;;;;;5040838;28;20514;-84
2023/02/12 07:28:23;;;;;;;41.70;23.60;;;8.50;99.90;;;;;;5041323;28;20464;-83
2023/02/12 07:30:50;;;;;;;40.27;22.90;;;8.60;99.90;;;;;;5028795;28;20552;-84
2023/02/12 07:33:17;;;;;;;41.30;24.23;;;8.60;99.90;;;;;;5035384;28;20498;-84
2023/02/12 07:35:44;;;;;;;44.97;23.53;;;8.60;99.90;;;;;;5030907;28;20505;-83
2023/02/12 07:38:11;;;;;;;39.77;22.30;;;8.60;99.90;;;;;;5037525;28;20530;-86
2023/02/12 07:40:39;;;;;;;44.30;25.17;;;8.70;99.90;;;;;;5041617;27;20466;-86
2023/02/12 07:43:06;;;;;;;38.63;22.23;;;8.70;99.90;;;;;;5050060;28;20526;-84
2023/02/12 07:45:33;;;;;;;45.43;24.30;;;8.70;99.90;;;;;;5038973;28;20587;-85
2023/02/12 07:48:00;;;;;;;36.40;24.27;;;8.80;99.90;;;;;;5038378;28;20468;-83
2023/02/12 07:50:26;;;;;;;48.87;26.43;;;8.90;99.90;;;;;;5040125;28;20487;-84
2023/02/12 07:52:53;;;;;;;43.30;23.33;;;8.90;99.90;;;;;;5044388;28;20460;-84
2023/02/12 07:55:20;;;;;;;39.50;23.00;;;9.00;99.90;;;;;;5044172;28;20523;-84
2023/02/12 07:57:49;;;;;;;41.60;24.30;;;9.00;99.90;;;;;;5060423;27;20466;-83
2023/02/12 08:00:17;;;;;;;41.23;24.87;;;9.10;99.90;;;;;;5045111;28;20872;-84
2023/02/12 08:02:44;;;;;;;41.27;25.10;;;9.20;99.90;;;;;;5043511;28;20545;-82
2023/02/12 08:05:11;;;;;;;38.20;24.87;;;9.30;99.90;;;;;;5045293;28;20488;-84
2023/02/12 08:07:38;;;;;;;44.03;24.70;;;9.40;99.90;;;;;;5044822;28;20501;-83
2023/02/12 08:10:05;;;;;;;44.53;25.07;;;9.40;99.90;;;;;;5045115;28;20478;-83
2023/02/12 08:12:32;;;;;;;45.10;25.60;;;9.50;99.90;;;;;;5044075;28;20533;-84
2023/02/12 08:15:00;;;;;;;42.83;24.60;;;9.50;99.90;;;;;;5043939;28;20464;-81
2023/02/12 08:17:27;;;;;;;37.17;25.13;;;9.60;93.60;;;;;;5041584;28;20502;-83
2023/02/12 08:19:54;;;;;;;38.93;23.23;;;9.70;68.60;;;;;;5043728;28;20534;-83
2023/02/12 08:22:21;;;;;;;41.40;23.77;;;9.70;44.50;;;;;;5041128;28;20527;-83
2023/02/12 08:24:47;;;;;;;44.20;25.60;;;9.80;37.40;;;;;;5043414;28;20497;-82
2023/02/12 08:27:14;;;;;;;43.43;26.10;;;9.80;13.50;;;;;;5042646;28;20538;-82
2023/02/12 08:29:41;;;;;;;36.67;22.43;;;9.80;1.40;;;;;;5044249;28;20440;-83
2023/02/12 08:32:12;;;;;;;40.83;23.93;;;9.90;1.00;;;;;;5044664;28;20527;-84
2023/02/12 08:34:39;;;;;;;41.77;25.17;;;9.90;1.00;;;;;;5047451;28;20535;-83
2023/02/12 08:37:06;;;;;;;39.73;23.40;;;9.90;1.00;;;;;;5046939;28;20482;-82
2023/02/12 08:39:33;;;;;;;39.40;22.83;;;10.00;1.00;;;;;;5043763;28;20515;-83
2023/02/12 08:42:00;;;;;;;36.20;21.93;;;10.00;1.00;;;;;;5042534;28;20494;-81
2023/02/12 08:44:28;;;;;;;38.90;23.53;;;10.10;1.00;;;;;;5044006;28;20506;-84
2023/02/12 08:46:55;;;;;;;40.93;24.17;;;10.20;1.00;;;;;;5042246;28;20457;-81
2023/02/12 08:49:25;;;;;;;41.77;24.40;;;10.30;1.00;;;;;;5062972;27;20444;-82
2023/02/12 08:51:54;;;;;;;36.03;23.90;;;10.30;1.00;;;;;;5051919;27;20487;-84
2023/02/12 08:54:22;;;;;;;39.13;23.50;;;10.30;1.00;;;;;;5054328;27;20528;-83
2023/02/12 08:56:49;;;;;;;36.47;22.90;;;10.40;1.00;;;;;;5049108;28;20559;-83
2023/02/12 08:59:17;;;;;;;38.20;23.93;;;10.50;1.00;;;;;;5061050;27;20461;-83
2023/02/12 09:01:45;;;;;;;37.23;23.50;;;10.40;1.00;;;;;;5077873;27;20483;-83
2023/02/12 09:04:18;;;;;;;36.17;22.60;;;10.40;1.00;;;;;;5043174;28;20563;-84
2023/02/12 09:06:47;;;;;;;38.17;24.10;;;10.50;1.00;;;;;;5041606;28;20475;-83
2023/02/12 09:09:14;;;;;;;35.53;23.83;;;10.50;1.00;;;;;;5045036;28;20452;-82
2023/02/12 09:11:42;;;;;;;43.03;24.90;;;10.60;1.00;;;;;;5045995;28;20472;-82
2023/02/12 09:14:12;;;;;;;36.63;24.30;;;10.70;1.00;;;;;;5045151;28;20443;-82
2023/02/12 09:16:39;;;;;;;36.10;22.57;;;10.80;1.00;;;;;;5045912;28;20568;-81
2023/02/12 09:19:06;;;;;;;34.77;23.73;;;10.90;99.90;;;;;;5043502;28;20448;-81
2023/02/12 09:21:33;;;;;;;37.03;26.17;;;11.10;99.90;;;;;;5039428;28;20503;-82
2023/02/12 09:24:03;;;;;;;36.77;22.30;;;11.20;99.90;;;;;;5040692;27;20496;-81
2023/02/12 09:26:30;;;;;;;39.70;22.60;;;11.30;99.90;;;;;;5041834;28;20483;-82
2023/02/12 09:28:56;;;;;;;39.77;23.10;;;11.20;1.00;;;;;;5041476;28;20456;-80
2023/02/12 09:31:26;;;;;;;31.53;22.27;;;11.00;21.60;;;;;;5046049;28;20491;-81
2023/02/12 09:33:53;;;;;;;32.53;21.73;;;11.10;99.90;;;;;;5040139;28;20453;-80
2023/02/12 09:36:20;;;;;;;34.47;23.57;;;11.20;97.90;;;;;;5039851;28;20480;-82
2023/02/12 09:38:48;;;;;;;37.60;23.03;;;11.30;99.90;;;;;;5020913;28;20921;-81
2023/02/12 09:41:46;;;;;;;32.63;20.70;;;11.30;47.80;;;;;;5020385;28;20582;-81
2023/02/12 09:44:21;;;;;;;36.47;23.67;;;11.40;1.00;;;;;;5021978;28;20497;-81
2023/02/12 09:46:52;;;;;;;29.63;20.50;;;11.50;1.00;;;;;;5025412;28;20467;-81
2023/02/12 09:49:33;;;;;;;31.20;20.40;;;11.60;99.90;;;;;;5040645;28;20453;-80
2023/02/12 09:52:01;;;;;;;34.70;22.93;;;11.70;99.90;;;;;;5040304;28;20552;-81
2023/02/12 09:54:37;;;;;;;34.20;22.77;;;11.80;99.90;;;;;;5042497;28;20536;-81
2023/02/12 09:57:12;;;;;;;34.50;21.70;;;11.60;1.00;;;;;;5072037;27;20439;-81
2023/02/12 09:59:44;;;;;;;36.73;22.87;;;11.70;99.90;;;;;;5082471;27;20520;-81
2023/02/12 10:02:14;;;;;;;32.40;20.57;;;11.40;29.20;;;;;;5126091;27;20437;-81
2023/02/12 10:04:42;;;;;;;31.97;21.30;;;11.60;99.90;;;;;;5072243;27;20492;-80
2023/02/12 10:07:18;;;;;;;34.03;20.33;;;11.50;99.90;;;;;;5044642;28;20441;-81
2023/02/12 10:10:03;;;;;;;33.07;19.57;;;11.30;1.00;;;;;;5040638;28;20455;-81
2023/02/12 10:12:39;;;;;;;33.50;20.10;;;11.40;1.00;;;;;;5089407;27;20452;-82
2023/02/12 10:15:16;;;;;;;29.50;17.57;;;11.40;1.00;;;;;;5067336;27;20467;-81
2023/02/12 10:17:51;;;;;;;32.67;19.77;;;11.30;99.90;;;;;;5075980;27;20515;-80
2023/02/12 10:20:48;;;;;;;30.00;20.47;;;11.40;99.90;;;;;;5059916;27;20531;-80
2023/02/12 10:23:33;;;;;;;32.57;21.00;;;11.50;99.90;;;;;;5026906;28;20440;-81
2023/02/12 10:26:08;;;;;;;29.13;19.10;;;11.60;1.00;;;;;;5043714;27;20564;-81
2023/02/12 10:28:40;;;;;;;24.10;17.57;;;11.40;99.90;;;;;;5044652;28;20465;-82
2023/02/12 10:31:12;;;;;;;27.10;18.07;;;11.60;1.00;;;;;;5055564;27;20844;-81
2023/02/12 10:33:43;;;;;;;32.13;18.93;;;11.80;99.90;;;;;;5081890;27;20450;-81
2023/02/12 10:36:19;;;;;;;25.27;19.67;;;12.10;3.70;;;;;;5076555;27;20512;-81
2023/02/12 10:38:51;;;;;;;24.30;17.00;;;12.20;1.00;;;;;;5082679;27;20516;-81
2023/02/12 10:41:18;;;;;;;25.10;17.90;;;12.50;1.00;;;;;;5068146;27;20476;-82
2023/02/12 10:43:46;;;;;;;34.07;20.77;;;12.60;1.00;;;;;;5080865;27;20458;-82
2023/02/12 10:46:15;;;;;;;28.40;20.30;;;12.50;1.00;;;;;;5097378;27;20555;-82
2023/02/12 10:48:46;;;;;;;33.90;21.70;;;12.60;1.00;;;;;;5082725;27;20465;-84
2023/02/12 10:51:34;;;;;;;34.40;21.73;;;13.00;1.00;;;;;;5093140;27;20467;-82
2023/02/12 10:54:32;;;;;;;32.90;22.50;;;13.30;99.90;;;;;;5080941;27;20582;-81
2023/02/12 10:57:00;;;;;;;30.57;20.77;;;13.40;99.90;;;;;;5044308;28;20477;-81
2023/02/12 10:59:29;;;;;;;32.73;21.73;;;13.70;99.90;;;;;;5044686;28;20460;-81
2023/02/12 11:01:56;;;;;;;28.03;19.57;;;13.50;99.90;;;;;;5039527;28;20442;-81
2023/02/12 11:04:27;;;;;;;28.53;20.77;;;13.50;99.90;;;;;;5040215;28;20462;-82
2023/02/12 11:06:58;;;;;;;31.73;22.60;;;13.60;99.90;;;;;;5040684;28;20478;-82
2023/02/12 11:09:28;;;;;;;25.80;18.93;;;13.10;99.90;;;;;;5041558;28;20950;-81
2023/02/12 11:11:55;;;;;;;35.27;22.53;;;13.20;99.90;;;;;;5035737;28;20533;-80
2023/02/12 11:14:22;;;;;;;31.00;20.93;;;13.20;99.90;;;;;;5039465;28;20466;-82
2023/02/12 11:16:54;;;;;;;31.20;20.10;;;13.00;99.90;;;;;;5051030;27;20454;-81
2023/02/12 11:19:24;;;;;;;33.37;21.40;;;13.10;99.90;;;;;;5038389;28;20567;-83
2023/02/12 11:21:51;;;;;;;35.47;23.47;;;13.30;99.90;;;;;;5037049;28;20467;-82
2023/02/12 11:24:30;;;;;;;28.80;21.40;;;12.80;99.90;;;;;;5040548;28;20479;-82
2023/02/12 11:27:23;;;;;;;30.83;21.40;;;12.70;99.90;;;;;;5038484;28;20537;-81
2023/02/12 11:30:15;;;;;;;31.30;21.50;;;12.70;99.90;;;;;;5037756;28;20569;-82
2023/02/12 11:32:44;;;;;;;40.27;22.90;;;12.30;99.90;;;;;;5038599;28;20466;-82
2023/02/12 11:35:17;;;;;;;29.70;22.37;;;12.30;1.00;;;;;;5040424;28;20492;-80
2023/02/12 11:37:45;;;;;;;38.47;22.83;;;12.40;1.00;;;;;;5036796;28;20473;-81
2023/02/12 11:40:23;;;;;;;35.70;22.07;;;12.40;1.00;;;;;;5058185;23;20502;-86
2023/02/12 11:42:56;;;;;;;31.00;21.90;;;12.50;1.00;;;;;;4986433;28;20800;-85
2023/02/12 11:45:30;;;;;;;34.87;21.77;;;12.00;1.00;;;;;;5000906;28;20848;-85
2023/02/12 11:47:59;;;;;;;34.40;22.07;;;12.00;99.90;;;;;;4986639;28;20465;-85
2023/02/12 11:50:30;;;;;;;28.53;20.50;;;12.10;99.90;;;;;;4987647;28;20464;-84
2023/02/12 11:53:01;;;;;;;30.23;19.90;;;12.20;24.90;;;;;;4989788;28;20460;-84
2023/02/12 11:55:31;;;;;;;31.03;20.53;;;12.20;96.80;;;;;;4991638;28;20491;-85
2023/02/12 11:58:03;;;;;;;32.23;20.10;;;12.30;1.70;;;;;;4994368;28;20654;-86
2023/02/12 12:00:37;;;;;;;29.60;21.83;;;12.60;54.50;;;;;;5005159;28;20468;-85
2023/02/12 12:03:23;;;;;;;31.10;21.87;;;12.40;1.00;;;;;;4991217;28;20472;-85
2023/02/12 12:05:53;;;;;;;36.23;21.60;;;12.40;1.00;;;;;;5027030;28;20496;-85
2023/02/12 12:08:26;;;;;;;34.17;22.57;;;12.50;1.00;;;;;;4985379;28;20909;-85
2023/02/12 12:10:59;;;;;;;30.27;20.67;;;12.60;1.00;;;;;;4984936;28;20478;-85
2023/02/12 12:13:33;;;;;;;28.97;20.30;;;12.70;1.00;;;;;;4985390;28;20462;-85
2023/02/12 12:21:57;;;;;;;35.17;22.40;;;12.70;1.00;;;;;;4985734;28;20458;-87
2023/02/12 12:24:31;;;;;;;28.10;20.90;;;12.70;1.00;;;;;;4986608;28;20467;-86
2023/02/12 12:27:03;;;;;;;34.80;21.17;;;12.60;1.00;;;;;;4986928;28;20486;-86
2023/02/12 12:29:46;;;;;;;30.27;20.77;;;12.70;1.00;;;;;;4985974;28;20476;-84
2023/02/12 12:32:16;;;;;;;29.87;19.30;;;12.60;1.00;;;;;;4979447;28;20457;-86
2023/02/12 12:34:44;;;;;;;37.47;22.50;;;12.60;1.00;;;;;;4984719;28;20468;-85
2023/02/12 12:37:33;;;;;;;31.30;21.17;;;12.60;1.00;;;;;;4983084;28;20497;-86
2023/02/12 12:40:16;;;;;;;30.60;21.10;;;12.40;1.00;;;;;;4983560;28;20492;-86
2023/02/12 12:43:09;;;;;;;28.80;20.77;;;12.50;1.00;;;;;;4983147;28;20433;-85
2023/02/12 12:46:05;;;;;;;27.50;19.50;;;12.40;1.00;;;;;;4987238;28;20525;-85
2023/02/12 12:48:56;;;;;;;30.37;19.47;;;12.50;1.00;;;;;;4966109;28;20459;-86
2023/02/12 12:51:40;;;;;;;31.30;20.90;;;12.50;1.00;;;;;;4980856;28;20574;-86
2023/02/12 12:54:20;;;;;;;29.33;19.30;;;12.50;1.00;;;;;;4982191;28;20550;-86
2023/02/12 12:56:59;;;;;;;30.60;20.70;;;12.60;1.00;;;;;;4982978;28;21340;-85
2023/02/12 12:59:53;;;;;;;28.20;19.17;;;12.50;1.00;;;;;;4982412;28;20523;-84
2023/02/12 13:02:52;;;;;;;26.50;18.73;;;12.50;1.00;;;;;;4976640;28;20576;-88
2023/02/12 13:06:07;;;;;;;26.47;18.50;;;12.40;1.00;;;;;;4983294;28;20496;-81